Time;durP1;ratioP1;P1;durP2;ratioP2;P2;SDS_P1;SDS_P2;PMS_P1;PMS_P2;Temp;Humidity;BMP_temperature;BMP_pressure;BME280_temperature;BME280_humidity;BME280_pressure;Samples;Min_cycle;Max_cycle;Signal;HPM_P1;HPM_P2
2023/01/25 00:01:23;;;;;;;;;45.00;27.75;;;;;4.82;100.00;103261.97;4978629;28;61576;-81
2023/01/25 00:03:49;;;;;;;;;33.25;26.50;;;;;4.84;100.00;103262.03;4996262;28;60020;-80
2023/01/25 00:06:14;;;;;;;;;31.50;24.50;;;;;4.82;100.00;103267.13;4977916;28;73855;-81
2023/01/25 00:08:39;;;;;;;;;41.00;28.25;;;;;4.83;100.00;103266.31;4996169;28;63037;-82
2023/01/25 00:11:05;;;;;;;;;26.25;18.00;;;;;4.80;100.00;103257.59;4996019;28;62368;-82
2023/01/25 00:13:30;;;;;;;;;35.75;22.50;;;;;4.79;100.00;103251.56;4996607;28;45536;-82
2023/01/25 00:16:03;;;;;;;;;38.50;24.75;;;;;4.80;100.00;103255.00;4996410;28;55379;-82
2023/01/25 00:18:28;;;;;;;;;38.75;25.25;;;;;4.87;100.00;103263.81;4979062;28;45430;-82
2023/01/25 00:20:54;;;;;;;;;35.00;21.50;;;;;4.77;100.00;103252.31;4978726;28;45808;-82
2023/01/25 00:23:19;;;;;;;;;45.00;28.50;;;;;4.79;100.00;103256.72;4997006;28;45391;-82
2023/01/25 00:25:44;;;;;;;;;33.25;23.00;;;;;4.78;100.00;103254.06;4977960;28;72654;-82
2023/01/25 00:28:09;;;;;;;;;32.50;27.00;;;;;4.75;100.00;103248.78;4995553;28;66801;-82
2023/01/25 00:30:35;;;;;;;;;27.50;21.00;;;;;4.77;100.00;103257.47;4978123;28;68634;-82
2023/01/25 00:33:35;;;;;;;;;30.75;20.50;;;;;4.77;100.00;103254.88;4995434;28;63840;-83
2023/01/25 00:36:01;;;;;;;;;36.75;24.00;;;;;4.76;100.00;103246.28;4970780;28;45537;-83
2023/01/25 00:38:32;;;;;;;;;29.00;21.25;;;;;4.81;100.00;103249.91;4976085;28;62709;-82
2023/01/25 00:40:58;;;;;;;;;34.75;26.25;;;;;4.90;100.00;103253.63;4959394;28;45348;-82
2023/01/25 00:43:23;;;;;;;;;28.50;24.25;;;;;4.90;100.00;103258.78;4993823;28;54006;-82
2023/01/25 00:45:49;;;;;;;;;36.25;23.75;;;;;4.89;100.00;103241.56;4978627;28;46693;-82
2023/01/25 00:48:14;;;;;;;;;29.25;17.00;;;;;4.89;100.00;103239.84;4978209;28;45835;-82
2023/01/25 00:50:39;;;;;;;;;44.25;27.50;;;;;4.88;100.00;103239.78;4995845;28;45437;-82
2023/01/25 00:53:06;;;;;;;;;27.50;25.00;;;;;4.86;100.00;103239.72;4995720;28;60689;-82
2023/01/25 00:55:31;;;;;;;;;32.50;25.25;;;;;4.83;100.00;103237.94;4995088;28;72228;-82
2023/01/25 00:57:57;;;;;;;;;33.75;29.50;;;;;4.76;100.00;103232.50;4961291;28;74439;-82
2023/01/25 01:00:22;;;;;;;;;35.50;26.00;;;;;4.74;100.00;103237.59;4995538;28;62978;-82
2023/01/25 01:02:47;;;;;;;;;43.25;29.75;;;;;4.73;100.00;103235.84;4994906;28;66764;-82
2023/01/25 01:05:13;;;;;;;;;36.00;16.50;;;;;4.71;100.00;103234.03;4995966;28;45313;-82
2023/01/25 01:07:38;;;;;;;;;40.25;23.00;;;;;4.73;100.00;103238.41;4995983;28;65281;-82
2023/01/25 01:10:04;;;;;;;;;37.50;28.50;;;;;4.71;100.00;103236.63;4995758;28;45319;-82
2023/01/25 01:12:30;;;;;;;;;37.50;25.25;;;;;4.65;100.00;103235.56;4996015;28;45674;-82
2023/01/25 01:14:55;;;;;;;;;41.75;28.00;;;;;4.58;100.00;103230.13;4994899;28;65935;-82
2023/01/25 01:17:21;;;;;;;;;29.75;20.00;;;;;4.58;100.00;103237.88;4995536;28;45357;-82
2023/01/25 01:19:46;;;;;;;;;31.50;24.75;;;;;4.55;100.00;103233.50;4995999;28;45385;-82
2023/01/25 01:22:11;;;;;;;;;48.75;26.50;;;;;4.49;100.00;103225.50;4977944;28;59688;-82
2023/01/25 01:24:37;;;;;;;;;40.00;25.75;;;;;4.55;100.00;103240.34;4994906;28;68813;-82
2023/01/25 01:27:02;;;;;;;;;38.25;27.75;;;;;4.53;100.00;103231.66;4995754;28;45362;-82
2023/01/25 01:29:28;;;;;;;;;37.50;29.25;;;;;4.51;100.00;103231.59;4995642;28;46240;-82
2023/01/25 01:31:53;;;;;;;;;44.25;28.25;;;;;4.56;100.00;103237.81;4995336;28;45384;-82
2023/01/25 01:34:18;;;;;;;;;42.50;27.25;;;;;4.51;100.00;103221.28;4978048;28;46071;-82
2023/01/25 01:36:44;;;;;;;;;39.75;27.00;;;;;4.59;100.00;103237.94;4978163;28;45563;-82
2023/01/25 01:39:09;;;;;;;;;34.00;27.75;;;;;4.54;100.00;103233.44;4977459;28;57673;-81
2023/01/25 01:41:36;;;;;;;;;42.25;25.75;;;;;4.53;100.00;103236.81;4978051;28;45454;-81
2023/01/25 01:44:01;;;;;;;;;38.25;29.25;;;;;4.48;100.00;103234.09;4977903;28;45433;-81
2023/01/25 01:46:33;;;;;;;;;43.00;29.50;;;;;4.47;100.00;103238.34;4976495;28;70830;-81
2023/01/25 01:49:08;;;;;;;;;45.50;29.00;;;;;4.50;100.00;103242.75;4978309;28;45289;-81
2023/01/25 01:52:01;;;;;;;;;50.00;30.75;;;;;4.51;100.00;103246.22;4977915;28;45568;-81
2023/01/25 01:54:33;;;;;;;;;37.00;25.50;;;;;4.44;100.00;103238.25;4995282;28;46479;-81
2023/01/25 01:57:07;;;;;;;;;46.50;33.00;;;;;4.19;100.00;103221.00;4995519;28;45796;-81
2023/01/25 01:59:39;;;;;;;;;41.50;27.50;;;;;4.25;100.00;103239.28;4995647;28;45439;-82
2023/01/25 02:02:04;;;;;;;;;44.75;26.00;;;;;4.21;100.00;103239.97;4977570;28;45302;-82
2023/01/25 02:04:30;;;;;;;;;40.50;26.50;;;;;4.26;100.00;103253.91;4996835;28;67474;-81
2023/01/25 02:07:06;;;;;;;;;40.75;27.00;;;;;4.23;100.00;103260.66;4980942;28;48039;-82
2023/01/25 02:09:34;;;;;;;;;45.50;28.75;;;;;4.16;100.00;103250.94;4981139;28;45363;-82
2023/01/25 02:11:59;;;;;;;;;40.50;26.50;;;;;4.11;100.00;103250.78;4981361;28;45497;-82
2023/01/25 02:14:26;;;;;;;;;42.25;31.75;;;;;4.12;100.00;103257.66;4980900;28;46372;-81
2023/01/25 02:16:52;;;;;;;;;47.25;29.00;;;;;4.12;100.00;103251.66;4998158;28;45977;-81
2023/01/25 02:19:52;;;;;;;;;36.75;26.00;;;;;4.09;100.00;103249.84;4981205;28;45351;-81
2023/01/25 02:22:21;;;;;;;;;53.50;33.00;;;;;4.11;100.00;103261.09;4980892;28;45525;-81
2023/01/25 02:25:00;;;;;;;;;42.50;33.50;;;;;4.08;100.00;103248.94;4980903;28;46175;-81
2023/01/25 02:27:26;;;;;;;;;43.50;28.75;;;;;4.10;100.00;103254.16;4964719;28;46021;-81
2023/01/25 02:29:51;;;;;;;;;42.25;28.75;;;;;4.12;100.00;103261.94;4997201;28;65071;-82
2023/01/25 02:32:16;;;;;;;;;38.75;29.25;;;;;4.05;100.00;103251.41;4997644;28;66714;-81
2023/01/25 02:34:42;;;;;;;;;38.25;28.50;;;;;4.09;100.00;103257.56;4997005;28;71991;-81
2023/01/25 02:37:13;;;;;;;;;42.50;34.50;;;;;4.12;100.00;103261.94;4997962;28;52615;-81
2023/01/25 02:39:39;;;;;;;;;38.25;25.50;;;;;4.10;100.00;103263.59;4980778;28;45349;-81
2023/01/25 02:42:05;;;;;;;;;50.75;32.25;;;;;4.11;100.00;103266.25;4997888;28;45549;-81
2023/01/25 02:44:31;;;;;;;;;50.25;34.00;;;;;4.13;100.00;103269.75;4997527;28;51541;-81
2023/01/25 02:46:56;;;;;;;;;52.25;31.75;;;;;4.10;100.00;103253.28;4997918;28;45368;-81
2023/01/25 02:49:22;;;;;;;;;37.50;30.75;;;;;4.19;100.00;103264.81;4980606;28;45331;-81
2023/01/25 02:51:50;;;;;;;;;41.25;30.75;;;;;4.17;100.00;103258.72;4998415;28;45399;-81
2023/01/25 02:54:18;;;;;;;;;48.25;29.50;;;;;4.20;100.00;103261.44;4980173;28;46232;-82
2023/01/25 02:56:43;;;;;;;;;46.25;33.75;;;;;4.12;100.00;103251.66;4980391;28;45960;-81
2023/01/25 02:59:12;;;;;;;;;45.25;29.75;;;;;4.18;100.00;103263.09;4962942;28;60717;-81
2023/01/25 03:01:38;;;;;;;;;38.25;30.25;;;;;4.19;100.00;103259.66;4998108;28;45313;-81
2023/01/25 03:04:04;;;;;;;;;40.00;33.25;;;;;4.22;100.00;103258.91;4979953;28;46205;-81
2023/01/25 03:06:30;;;;;;;;;53.50;30.75;;;;;4.18;100.00;103257.03;4980273;28;45368;-80
2023/01/25 03:08:56;;;;;;;;;49.50;33.25;;;;;4.14;100.00;103250.91;4998014;28;45391;-81
2023/01/25 03:11:21;;;;;;;;;37.25;25.75;;;;;4.11;100.00;103248.19;4996719;28;68423;-81
2023/01/25 03:13:46;;;;;;;;;52.50;36.00;;;;;4.08;100.00;103250.66;4978768;28;71305;-81
2023/01/25 03:16:12;;;;;;;;;40.50;35.00;;;;;4.06;100.00;103249.72;4979958;28;45395;-81
2023/01/25 03:18:39;;;;;;;;;49.75;31.50;;;;;4.05;100.00;103258.28;4980229;28;45443;-81
2023/01/25 03:21:10;;;;;;;;;38.50;31.75;;;;;4.00;100.00;103246.91;4980172;28;45421;-81
2023/01/25 03:23:35;;;;;;;;;49.25;36.75;;;;;4.03;100.00;103253.06;4997475;28;46471;-81
2023/01/25 03:26:20;;;;;;;;;38.50;28.25;;;;;4.02;100.00;103247.84;4979597;28;51007;-81
2023/01/25 03:28:46;;;;;;;;;40.25;31.00;;;;;4.05;100.00;103250.56;4997091;28;45719;-81
2023/01/25 03:31:13;;;;;;;;;52.00;37.75;;;;;4.06;100.00;103253.16;4979964;28;45415;-81
2023/01/25 03:33:38;;;;;;;;;51.25;33.00;;;;;3.99;100.00;103240.88;4997098;28;46101;-81
2023/01/25 03:36:04;;;;;;;;;47.75;31.75;;;;;4.01;100.00;103243.50;4997123;28;49997;-81
2023/01/25 03:38:30;;;;;;;;;44.50;33.75;;;;;3.97;100.00;103234.75;4997523;28;45391;-81
2023/01/25 03:40:55;;;;;;;;;44.75;30.50;;;;;3.99;100.00;103239.97;4996585;28;61760;-82
2023/01/25 03:43:21;;;;;;;;;40.25;30.50;;;;;3.98;100.00;103235.66;4996743;28;46303;-81
2023/01/25 03:45:55;;;;;;;;;54.50;37.50;;;;;3.94;100.00;103244.06;4979821;28;45421;-81
2023/01/25 03:48:21;;;;;;;;;48.75;33.50;;;;;3.92;100.00;103241.47;4997429;28;45444;-81
2023/01/25 03:50:50;;;;;;;;;60.50;39.50;;;;;3.89;100.00;103238.75;4997250;28;45299;-81
2023/01/25 03:53:28;;;;;;;;;47.25;35.00;;;;;3.88;100.00;103245.63;4979300;28;46804;-81
2023/01/25 03:56:02;;;;;;;;;47.75;31.25;;;;;3.89;100.00;103238.75;4997056;28;45369;-81
2023/01/25 03:58:28;;;;;;;;;44.50;29.25;;;;;3.85;100.00;103237.75;4996790;28;45358;-81
2023/01/25 04:00:55;;;;;;;;;50.00;31.25;;;;;3.84;100.00;103235.97;4997026;28;45432;-81
2023/01/25 04:03:21;;;;;;;;;42.00;32.00;;;;;3.76;100.00;103227.09;4979456;28;46388;-81
2023/01/25 04:05:46;;;;;;;;;39.75;30.25;;;;;3.81;100.00;103235.88;4979449;28;45342;-81
2023/01/25 04:08:12;;;;;;;;;47.25;35.75;;;;;3.72;100.00;103226.94;4979497;28;45323;-81
2023/01/25 04:10:38;;;;;;;;;52.00;31.75;;;;;3.69;100.00;103230.25;4996794;28;45291;-81
2023/01/25 04:13:03;;;;;;;;;39.25;28.00;;;;;3.72;100.00;103234.66;4995704;28;70361;-81
2023/01/25 04:15:28;;;;;;;;;47.25;33.00;;;;;3.73;100.00;103236.38;4977867;28;71374;-82
2023/01/25 04:17:55;;;;;;;;;55.75;36.25;;;;;3.72;100.00;103229.50;4979286;28;45307;-81
2023/01/25 04:20:20;;;;;;;;;47.25;28.25;;;;;3.77;100.00;103231.44;4996755;28;45429;-81
2023/01/25 04:22:45;;;;;;;;;45.25;30.75;;;;;3.77;100.00;103234.00;4996738;28;46373;-81
2023/01/25 04:25:11;;;;;;;;;36.25;29.75;;;;;3.75;100.00;103238.22;4995521;28;69788;-81
2023/01/25 04:27:36;;;;;;;;;51.50;30.00;;;;;3.75;100.00;103235.66;4995036;28;59001;-81
2023/01/25 04:30:01;;;;;;;;;39.75;23.25;;;;;3.75;100.00;103234.75;4995727;28;63540;-81
2023/01/25 04:32:27;;;;;;;;;41.50;32.75;;;;;3.72;100.00;103234.66;4996098;28;46319;-81
2023/01/25 04:34:52;;;;;;;;;48.00;28.25;;;;;3.69;100.00;103237.97;4995306;28;68937;-81
2023/01/25 04:37:17;;;;;;;;;33.50;30.50;;;;;3.67;100.00;103234.47;4995976;28;62373;-81
2023/01/25 04:39:43;;;;;;;;;37.25;20.25;;;;;3.76;100.00;103239.09;4995439;28;69365;-81
2023/01/25 04:42:08;;;;;;;;;41.50;30.25;;;;;3.76;100.00;103228.78;4995070;28;70433;-81
2023/01/25 04:44:33;;;;;;;;;31.25;24.50;;;;;3.76;100.00;103234.81;4995434;28;71724;-81
2023/01/25 04:46:59;;;;;;;;;39.00;23.00;;;;;3.76;100.00;103229.66;4995573;28;62587;-81
2023/01/25 04:49:24;;;;;;;;;40.50;30.25;;;;;3.77;100.00;103227.97;4996426;28;45489;-81
2023/01/25 04:51:49;;;;;;;;;47.25;30.25;;;;;3.77;100.00;103217.66;4995230;28;69999;-81
2023/01/25 04:54:15;;;;;;;;;43.25;27.75;;;;;3.80;100.00;103226.38;4995274;28;68016;-81
2023/01/25 04:56:40;;;;;;;;;36.25;25.75;;;;;3.76;100.00;103216.78;4995422;28;53966;-82
2023/01/25 04:59:05;;;;;;;;;43.75;27.25;;;;;3.81;100.00;103220.44;4995500;28;62339;-83
2023/01/25 05:01:32;;;;;;;;;41.75;28.50;;;;;3.87;100.00;103227.50;4995621;28;63484;-82
2023/01/25 05:03:58;;;;;;;;;43.50;29.00;;;;;3.81;100.00;103210.13;4978583;28;45407;-81
2023/01/25 05:06:23;;;;;;;;;34.50;25.75;;;;;3.85;100.00;103221.44;4996199;28;45844;-81
2023/01/25 05:08:49;;;;;;;;;32.00;23.25;;;;;3.77;100.00;103218.56;4977868;28;59692;-81
2023/01/25 05:11:15;;;;;;;;;39.00;23.75;;;;;3.73;100.00;103226.97;4995511;28;47162;-81
2023/01/25 05:13:40;;;;;;;;;33.00;24.25;;;;;3.67;100.00;103216.44;4995666;28;53874;-81
2023/01/25 05:16:05;;;;;;;;;51.75;22.50;;;;;3.72;100.00;103217.50;4994894;28;67978;-81
2023/01/25 05:18:31;;;;;;;;;30.75;20.00;;;;;3.68;100.00;103211.34;4996001;28;45359;-81
2023/01/25 05:20:56;;;;;;;;;34.00;20.00;;;;;3.75;100.00;103222.78;4977338;28;69789;-81
2023/01/25 05:23:21;;;;;;;;;36.75;21.25;;;;;3.74;100.00;103214.97;4995484;28;45459;-81
2023/01/25 05:28:31;;;;;;;;;31.00;19.75;;;;;3.70;100.00;103203.69;4981011;28;45382;-81
2023/01/25 05:30:56;;;;;;;;;33.50;22.00;;;;;3.69;100.00;103207.94;4994992;28;69010;-81
2023/01/25 05:33:22;;;;;;;;;29.50;22.75;;;;;3.72;100.00;103214.03;4995591;28;45522;-81
2023/01/25 05:35:47;;;;;;;;;37.50;23.50;;;;;3.69;100.00;103214.78;4995883;28;45391;-81
2023/01/25 05:38:12;;;;;;;;;32.00;19.00;;;;;3.65;100.00;103218.06;4996458;28;45295;-81
2023/01/25 05:40:38;;;;;;;;;42.75;23.50;;;;;3.64;100.00;103217.19;4998183;28;72249;-81
2023/01/25 05:43:03;;;;;;;;;19.25;13.50;;;;;3.59;100.00;103200.66;4999216;28;45512;-81
2023/01/25 05:45:29;;;;;;;;;17.00;10.00;;;;;3.65;100.00;103213.78;4998487;28;65535;-81
2023/01/25 05:47:58;;;;;;;;;25.00;16.00;;;;;3.69;100.00;103215.66;4999238;28;45346;-81
2023/01/25 05:50:24;;;;;;;;;25.75;18.50;;;;;3.73;100.00;103218.34;4998964;28;45549;-82
2023/01/25 05:52:50;;;;;;;;;23.75;17.00;;;;;3.72;100.00;103208.91;4998734;28;45282;-81
2023/01/25 05:55:15;;;;;;;;;28.25;18.75;;;;;3.79;100.00;103213.44;4998003;28;49687;-81
2023/01/25 05:57:41;;;;;;;;;30.50;20.75;;;;;3.81;100.00;103204.97;4981345;28;45484;-81
2023/01/25 06:00:07;;;;;;;;;18.25;12.00;;;;;3.81;100.00;103194.66;4998267;28;71358;-81
2023/01/25 06:02:33;;;;;;;;;27.00;14.75;;;;;3.88;100.00;103195.75;4981268;28;45407;-81
2023/01/25 06:04:58;;;;;;;;;14.00;11.00;;;;;3.87;100.00;103205.19;4999202;28;45349;-81
2023/01/25 06:07:24;;;;;;;;;16.50;9.50;;;;;3.86;100.00;103212.84;4980157;28;65577;-81
2023/01/25 06:09:49;;;;;;;;;19.50;16.00;;;;;3.81;100.00;103207.53;4997670;28;72491;-81
2023/01/25 06:12:15;;;;;;;;;22.00;13.50;;;;;3.80;100.00;103210.94;4998785;28;45327;-81
2023/01/25 06:14:40;;;;;;;;;15.25;9.25;;;;;3.77;100.00;103197.94;4981331;28;45892;-81
2023/01/25 06:17:06;;;;;;;;;25.50;10.75;;;;;3.82;100.00;103206.72;4998791;28;45287;-81
2023/01/25 06:19:31;;;;;;;;;12.00;7.00;;;;;3.81;100.00;103202.38;4998466;28;47094;-81
2023/01/25 06:21:57;;;;;;;;;14.50;7.25;;;;;3.81;100.00;103202.38;4979913;28;68312;-81
2023/01/25 06:24:22;;;;;;;;;14.25;9.25;;;;;3.88;100.00;103206.06;4997840;28;66177;-81
2023/01/25 06:26:47;;;;;;;;;20.50;9.75;;;;;3.87;100.00;103200.03;4998726;28;45435;-81
2023/01/25 06:29:13;;;;;;;;;12.25;9.75;;;;;3.85;100.00;103201.69;4998372;28;45477;-81
2023/01/25 06:31:38;;;;;;;;;18.50;11.50;;;;;3.82;100.00;103198.97;4998542;28;45388;-80
2023/01/25 06:34:05;;;;;;;;;20.00;10.00;;;;;3.83;100.00;103203.31;4998161;28;45746;-81
2023/01/25 06:36:31;;;;;;;;;14.50;13.00;;;;;3.80;100.00;103205.78;4998133;28;45413;-81
2023/01/25 06:38:56;;;;;;;;;18.50;11.00;;;;;3.77;100.00;103209.94;4998462;28;45435;-81
2023/01/25 06:41:22;;;;;;;;;13.00;7.25;;;;;3.72;100.00;103201.16;4998279;28;45414;-83
2023/01/25 06:43:49;;;;;;;;;13.00;8.75;;;;;3.62;100.00;103189.59;4998861;28;45677;-82
2023/01/25 06:46:15;;;;;;;;;24.50;12.25;;;;;3.64;100.00;103203.41;4998459;28;45326;-81
2023/01/25 06:48:43;;;;;;;;;16.75;10.25;;;;;3.61;100.00;103198.16;4997674;28;46393;-83
2023/01/25 06:51:13;;;;;;;;;17.75;10.00;;;;;3.58;100.00;103204.06;4980831;28;45363;-83
2023/01/25 06:53:41;;;;;;;;;20.00;12.00;;;;;3.57;100.00;103194.59;4980974;28;45306;-83
2023/01/25 06:56:09;;;;;;;;;9.50;9.00;;;;;3.53;100.00;103185.00;4980668;28;45287;-84
2023/01/25 06:58:35;;;;;;;;;15.50;9.75;;;;;3.59;100.00;103202.38;4980476;28;46698;-84
2023/01/25 07:01:03;;;;;;;;;16.00;10.00;;;;;3.57;100.00;103188.56;4998591;28;45399;-84
2023/01/25 07:03:29;;;;;;;;;12.00;9.00;;;;;3.48;100.00;103176.19;4980904;28;45480;-85
2023/01/25 07:06:04;;;;;;;;;16.25;12.00;;;;;3.51;100.00;103188.31;4981095;28;45390;-82
2023/01/25 07:08:29;;;;;;;;;15.50;9.50;;;;;3.42;100.00;103176.84;4998061;28;47092;-83
2023/01/25 07:10:56;;;;;;;;;12.75;9.75;;;;;3.49;100.00;103185.66;4980288;28;45576;-82
2023/01/25 07:13:22;;;;;;;;;20.00;12.00;;;;;3.48;100.00;103182.22;4996696;28;45438;-82
2023/01/25 07:15:58;;;;;;;;;18.50;11.75;;;;;3.51;100.00;103178.00;4980291;28;45372;-81
2023/01/25 07:18:24;;;;;;;;;15.00;9.50;;;;;3.58;100.00;103180.88;4980332;28;46777;-81
2023/01/25 07:20:50;;;;;;;;;15.00;14.00;;;;;3.57;100.00;103180.84;4997504;28;45302;-81
2023/01/25 07:23:16;;;;;;;;;23.25;13.00;;;;;3.59;100.00;103176.63;4980233;28;45363;-81
2023/01/25 07:25:49;;;;;;;;;16.50;15.75;;;;;3.51;100.00;103166.03;4980239;28;45319;-81
2023/01/25 07:28:15;;;;;;;;;23.00;10.00;;;;;3.57;100.00;103175.69;4979805;28;45355;-81
2023/01/25 07:30:41;;;;;;;;;16.25;10.75;;;;;3.58;100.00;103177.44;4997355;28;45887;-83
2023/01/25 07:33:07;;;;;;;;;19.75;14.50;;;;;3.55;100.00;103173.03;4997585;28;45449;-82
2023/01/25 07:35:32;;;;;;;;;19.25;12.00;;;;;3.65;100.00;103184.56;4979434;28;45509;-82
2023/01/25 07:37:58;;;;;;;;;24.00;12.50;;;;;3.66;100.00;103192.38;4996959;28;58264;-81
2023/01/25 07:40:24;;;;;;;;;22.75;14.00;;;;;3.65;100.00;103192.31;4997226;28;52057;-83
2023/01/25 07:42:50;;;;;;;;;21.00;13.25;;;;;3.63;100.00;103193.94;4980095;28;45392;-83
2023/01/25 07:45:16;;;;;;;;;16.75;12.25;;;;;3.62;100.00;103195.66;4963941;28;45331;-84
2023/01/25 07:47:41;;;;;;;;;16.25;11.50;;;;;3.46;100.00;103170.09;4963629;28;46500;-83
2023/01/25 07:50:07;;;;;;;;;15.25;12.50;;;;;3.57;100.00;103179.13;4979627;28;45332;-84
2023/01/25 07:52:32;;;;;;;;;19.00;11.50;;;;;3.64;100.00;103186.28;4997436;28;45272;-84
2023/01/25 07:54:58;;;;;;;;;23.25;14.00;;;;;3.61;100.00;103193.88;4995736;28;64147;-84
2023/01/25 07:57:24;;;;;;;;;19.00;13.00;;;;;3.52;100.00;103184.91;4978736;28;46315;-84
2023/01/25 07:59:49;;;;;;;;;17.50;12.25;;;;;3.53;100.00;103184.09;4995612;28;45954;-83
2023/01/25 08:02:15;;;;;;;;;22.25;16.50;;;;;3.61;100.00;103191.31;4978200;28;45460;-83
2023/01/25 08:04:41;;;;;;;;;29.00;12.75;;;;;3.54;100.00;103178.13;4996046;28;61728;-83
2023/01/25 08:07:07;;;;;;;;;15.50;11.50;;;;;3.51;100.00;103178.00;4968668;28;46192;-84
2023/01/25 08:09:32;;;;;;;;;14.75;9.00;;;;;3.47;100.00;103180.47;4994663;28;45497;-83
2023/01/25 08:11:57;;;;;;;;;20.25;14.00;;;;;3.45;100.00;103188.94;4995613;28;53937;-81
2023/01/25 08:14:23;;;;;;;;;30.00;12.00;;;;;3.41;100.00;103179.34;4996580;28;45520;-84
2023/01/25 08:16:49;;;;;;;;;23.50;17.50;;;;;3.42;100.00;103192.28;4961854;28;46465;-82
2023/01/25 08:19:14;;;;;;;;;25.00;13.00;;;;;3.39;100.00;103181.84;4995478;28;64381;-84
2023/01/25 08:21:40;;;;;;;;;20.25;13.25;;;;;3.44;100.00;103182.03;4996640;28;46833;-83
2023/01/25 08:24:06;;;;;;;;;20.00;13.00;;;;;3.46;100.00;103185.56;4996859;28;45701;-84
2023/01/25 08:26:32;;;;;;;;;20.00;15.00;;;;;3.38;100.00;103179.22;4962329;28;48155;-84
2023/01/25 08:28:58;;;;;;;;;25.00;13.75;;;;;3.38;100.00;103185.25;4996798;28;45294;-84
2023/01/25 08:31:26;;;;;;;;;21.00;15.00;;;;;3.42;100.00;103184.56;4978601;28;45379;-84
2023/01/25 08:33:51;;;;;;;;;11.00;9.00;;;;;3.43;100.00;103186.28;5008255;28;45496;-84
2023/01/25 08:36:18;;;;;;;;;15.00;10.00;;;;;3.36;100.00;103166.31;4995558;28;45872;-84
2023/01/25 08:38:47;;;;;;;;;18.50;13.50;;;;;3.46;100.00;103183.84;4975885;28;45815;-85
2023/01/25 08:41:16;;;;;;;;;17.50;14.75;;;;;3.43;100.00;103180.28;4976172;28;45649;-84
2023/01/25 08:43:42;;;;;;;;;15.50;12.00;;;;;3.40;100.00;103173.31;4996788;28;45211;-84
2023/01/25 08:46:08;;;;;;;;;17.75;12.50;;;;;3.27;100.00;103151.34;4996234;28;45771;-84
2023/01/25 08:48:34;;;;;;;;;16.00;12.00;;;;;3.33;100.00;103171.31;4995210;28;45329;-83
2023/01/25 08:51:00;;;;;;;;;21.50;12.50;;;;;3.37;100.00;103168.03;4994461;28;45318;-84
2023/01/25 08:53:30;;;;;;;;;18.00;12.50;;;;;3.43;100.00;103181.16;4992774;28;45518;-83
2023/01/25 08:55:55;;;;;;;;;19.00;15.00;;;;;3.49;100.00;103178.84;4983630;28;46464;-83
2023/01/25 08:58:21;;;;;;;;;15.75;12.75;;;;;3.49;100.00;103177.94;4989798;28;45545;-83
2023/01/25 09:00:47;;;;;;;;;23.25;9.00;;;;;3.43;100.00;103170.84;4983776;28;45443;-85
2023/01/25 09:03:13;;;;;;;;;15.75;13.50;;;;;3.38;100.00;103172.38;4981006;28;45787;-84
2023/01/25 09:05:39;;;;;;;;;11.75;6.25;;;;;3.29;100.00;103162.59;4989676;28;46313;-84
2023/01/25 09:08:06;;;;;;;;;16.75;9.50;;;;;3.30;100.00;103169.47;4985191;28;46877;-84
2023/01/25 09:10:32;;;;;;;;;14.00;9.50;;;;;3.26;100.00;103167.59;4994290;28;45474;-84
2023/01/25 09:12:57;;;;;;;;;17.50;12.50;;;;;3.20;100.00;103156.19;4993210;28;45442;-85
2023/01/25 09:15:23;;;;;;;;;21.75;12.00;;;;;3.31;100.00;103170.38;4993525;28;47225;-83
2023/01/25 09:17:52;;;;;;;;;13.75;11.00;;;;;3.35;100.00;103168.81;4982035;28;45315;-84
2023/01/25 09:20:18;;;;;;;;;12.50;12.50;;;;;3.42;100.00;103168.25;4995789;28;45481;-84
2023/01/25 09:22:44;;;;;;;;;17.50;12.00;;;;;3.47;100.00;103164.13;4994059;28;45582;-84
2023/01/25 09:25:09;;;;;;;;;17.00;13.00;;;;;3.48;100.00;103176.19;4993842;28;46455;-84
2023/01/25 09:27:34;;;;;;;;;20.25;13.50;;;;;3.34;100.00;103157.59;4989459;28;45496;-85
2023/01/25 09:30:00;;;;;;;;;23.50;13.00;;;;;3.33;100.00;103158.44;4993084;28;65467;-83
2023/01/25 09:32:25;;;;;;;;;17.25;12.75;;;;;3.19;100.00;103154.44;4992652;28;60913;-83
2023/01/25 09:34:50;;;;;;;;;19.50;12.00;;;;;3.13;100.00;103152.50;4976674;28;62535;-83
2023/01/25 09:37:15;;;;;;;;;17.50;14.00;;;;;3.15;100.00;103152.56;4994448;28;60898;-84
2023/01/25 09:39:41;;;;;;;;;20.25;13.25;;;;;3.06;100.00;103147.91;4975761;28;58647;-85
2023/01/25 09:42:22;;;;;;;;;21.00;15.25;;;;;3.12;100.00;103161.03;4994715;28;45569;-85
2023/01/25 09:45:00;;;;;;;;;19.00;10.25;;;;;3.11;100.00;103167.00;4971934;28;45665;-85
2023/01/25 09:47:29;;;;;;;;;24.00;12.25;;;;;3.11;100.00;103159.28;4978120;28;45593;-84
2023/01/25 09:50:08;;;;;;;;;17.25;12.75;;;;;3.10;100.00;103166.13;4977370;28;45461;-84
2023/01/25 09:52:54;;;;;;;;;15.50;12.25;;;;;3.10;100.00;103163.56;4986873;28;46124;-84
2023/01/25 09:55:23;;;;;;;;;21.50;14.00;;;;;3.08;100.00;103167.75;4992894;28;45946;-85
2023/01/25 09:57:52;;;;;;;;;18.00;13.00;;;;;2.98;100.00;103154.44;4974526;28;46027;-84
2023/01/25 10:00:44;;;;;;;;;25.50;16.25;;;;;2.96;100.00;103158.66;4972411;28;45423;-84
2023/01/25 10:03:18;;;;;;;;;26.50;15.00;;;;;3.03;100.00;103165.81;4991121;28;45383;-84
2023/01/25 10:05:46;;;;;;;;;14.75;13.50;;;;;3.03;100.00;103163.25;4991673;28;45466;-85
2023/01/25 10:08:19;;;;;;;;;23.75;15.00;;;;;3.05;100.00;103165.03;4973056;28;45962;-84
2023/01/25 10:10:45;;;;;;;;;20.50;15.25;;;;;3.08;100.00;103170.34;4994804;28;45409;-85
2023/01/25 10:13:12;;;;;;;;;23.00;11.75;;;;;3.00;100.00;103157.97;4961105;28;45599;-85
2023/01/25 10:15:51;;;;;;;;;27.00;13.00;;;;;3.13;100.00;103169.63;4972239;28;47046;-85
2023/01/25 10:18:47;;;;;;;;;28.75;14.00;;;;;3.15;100.00;103168.88;4968719;28;45461;-85
2023/01/25 10:21:25;;;;;;;;;13.00;12.00;;;;;3.18;100.00;103171.56;4998295;28;45507;-85
2023/01/25 10:24:06;;;;;;;;;31.00;16.00;;;;;3.25;100.00;103170.09;4950500;28;45520;-84
2023/01/25 10:26:34;;;;;;;;;22.00;13.00;;;;;3.33;100.00;103175.59;4969766;28;46423;-85
2023/01/25 10:29:20;;;;;;;;;20.50;14.50;;;;;3.31;100.00;103172.94;4992991;28;46480;-85
2023/01/25 10:31:54;;;;;;;;;35.00;18.00;;;;;3.25;100.00;103171.00;4977636;28;45453;-85
2023/01/25 10:34:30;;;;;;;;;19.50;15.50;;;;;3.26;100.00;103172.75;4968721;28;45703;-84
2023/01/25 10:37:00;;;;;;;;;21.00;14.50;;;;;3.19;100.00;103164.72;4966303;28;45480;-85
2023/01/25 10:39:25;;;;;;;;;23.00;15.75;;;;;3.14;100.00;103156.84;4960479;28;45423;-85
2023/01/25 10:41:59;;;;;;;;;15.75;13.50;;;;;3.18;100.00;103168.13;4960455;28;61016;-85
2023/01/25 10:44:27;;;;;;;;;24.25;16.00;;;;;3.08;100.00;103157.47;4993019;28;45639;-85
2023/01/25 10:47:16;;;;;;;;;25.25;13.75;;;;;3.07;100.00;103167.69;4960757;28;48190;-84
2023/01/25 10:49:53;;;;;;;;;23.00;14.00;;;;;2.98;100.00;103164.75;4961328;28;45933;-84
2023/01/25 10:52:21;;;;;;;;;21.25;17.00;;;;;2.93;100.00;103155.94;4978109;28;45484;-84
2023/01/25 10:54:51;;;;;;;;;20.50;14.50;;;;;2.90;100.00;103151.56;4977967;28;46146;-84
2023/01/25 10:57:19;;;;;;;;;22.00;18.25;;;;;2.96;100.00;103154.38;4959884;28;45825;-84
2023/01/25 10:59:50;;;;;;;;;24.00;16.50;;;;;2.90;100.00;103149.00;4978164;28;45949;-84
2023/01/25 11:02:39;;;;;;;;;24.25;14.75;;;;;2.97;100.00;103157.81;4985484;28;45361;-84
2023/01/25 11:05:22;;;;;;;;;20.50;15.50;;;;;2.88;100.00;103135.19;4978022;28;45310;-84
2023/01/25 11:07:48;;;;;;;;;24.50;16.00;;;;;2.92;100.00;103139.63;4977881;28;45493;-84
2023/01/25 11:10:34;;;;;;;;;25.00;19.25;;;;;2.94;100.00;103142.28;4969593;28;60543;-85
2023/01/25 11:13:15;;;;;;;;;27.25;19.50;;;;;3.00;100.00;103142.53;4957050;28;45404;-84
2023/01/25 11:15:45;;;;;;;;;27.50;18.50;;;;;2.91;100.00;103125.88;4963974;28;45311;-84